createdAt,value
2018-08-23T00:00:37.995Z,69.44
2018-08-23T00:03:15.680Z,71.03
2018-08-23T00:05:49.496Z,70.59
2018-08-23T00:08:17.608Z,71.74
2018-08-23T00:10:45.924Z,71.97
2018-08-23T00:13:14.015Z,71.78
2018-08-23T00:15:42.178Z,71.36
2018-08-23T00:18:10.300Z,71.91
2018-08-23T00:20:38.739Z,72.15
2018-08-23T00:23:07.896Z,72.17
2018-08-23T00:25:36.740Z,72.13
2018-08-23T00:28:05.219Z,71.85
2018-08-23T00:30:34.524Z,72.14
2018-08-23T00:33:03.710Z,72.31
2018-08-23T00:35:32.503Z,72.44
2018-08-23T00:38:01.508Z,73.12
2018-08-23T00:40:29.658Z,72.98
2018-08-23T00:43:03.220Z,73.08
2018-08-23T00:45:31.720Z,72.86
2018-08-23T00:47:59.856Z,72.18
2018-08-23T00:51:05.669Z,72.45
2018-08-23T00:53:35.181Z,72.55
2018-08-23T00:56:18.607Z,72.61
2018-08-23T00:58:54.263Z,73.31
2018-08-23T01:01:23.380Z,73.86
2018-08-23T01:03:52.558Z,73.95
2018-08-23T01:06:25.570Z,74.20
2018-08-23T01:08:54.595Z,74.52
2018-08-23T01:11:22.728Z,74.49
2018-08-23T01:13:51.504Z,74.34
2018-08-23T01:16:19.610Z,74.58
2018-08-23T01:18:47.839Z,74.67
2018-08-23T01:21:15.952Z,74.37
2018-08-23T01:23:44.279Z,75.11
2018-08-23T01:26:12.560Z,74.83
2018-08-23T01:28:40.728Z,74.85
2018-08-23T01:31:21.840Z,75.39
2018-08-23T01:33:53.213Z,76.36
2018-08-23T01:36:25.962Z,76.12
2018-08-23T01:38:54.137Z,76.47
2018-08-23T01:41:22.235Z,75.46
2018-08-23T01:43:51.150Z,76.13
2018-08-23T01:46:19.232Z,76.44
2018-08-23T01:48:51.128Z,76.92
2018-08-23T01:51:19.220Z,77.02
2018-08-23T01:53:49.044Z,76.98
2018-08-23T01:56:17.922Z,77.31
2018-08-23T01:58:46.053Z,77.67
2018-08-23T02:01:20.005Z,78.08
2018-08-23T02:03:48.361Z,78.24
2018-08-23T02:06:16.496Z,77.96
2018-08-23T02:08:46.043Z,77.61
2018-08-23T02:11:14.410Z,78.58
2018-08-23T02:13:42.860Z,78.10
2018-08-23T02:16:11.029Z,78.61
2018-08-23T02:18:39.142Z,78.52
2018-08-23T02:21:11.093Z,78.82
2018-08-23T02:23:50.483Z,78.40
2018-08-23T02:26:18.607Z,78.68
2018-08-23T02:28:48.267Z,78.56
2018-08-23T02:31:16.435Z,79.27
2018-08-23T02:33:45.492Z,79.58
2018-08-23T02:36:19.606Z,79.48
2018-08-23T02:38:51.053Z,79.24
2018-08-23T02:41:19.194Z,79.78
2018-08-23T02:43:47.859Z,79.78
2018-08-23T02:46:16.215Z,79.61
2018-08-23T02:48:44.615Z,79.08
2018-08-23T02:51:12.770Z,79.19
2018-08-23T02:53:43.118Z,79.21
2018-08-23T02:56:13.114Z,79.32
2018-08-23T02:59:00.028Z,78.87
2018-08-23T03:01:30.780Z,78.79
2018-08-23T03:04:09.816Z,78.36
2018-08-23T03:06:43.958Z,78.39
2018-08-23T03:09:12.546Z,78.58
2018-08-23T03:11:40.657Z,78.32
2018-08-23T03:14:08.819Z,78.11
2018-08-23T03:16:48.906Z,78.11
2018-08-23T03:19:17.218Z,77.98
2018-08-23T03:21:45.976Z,78.27
2018-08-23T03:24:18.556Z,78.33
2018-08-23T03:26:48.271Z,77.98
2018-08-23T03:29:16.861Z,78.39
2018-08-23T03:31:44.979Z,77.94
2018-08-23T03:34:13.093Z,77.87
2018-08-23T03:36:41.183Z,78.22
2018-08-23T03:39:09.769Z,78.01
2018-08-23T03:41:38.237Z,78.67
2018-08-23T03:44:16.327Z,78.87
2018-08-23T03:46:52.022Z,79.14
2018-08-23T03:49:25.131Z,79.84
2018-08-23T03:51:54.205Z,80.13
2018-08-23T03:54:22.312Z,80.39
2018-08-23T03:57:05.926Z,80.66
2018-08-23T03:59:35.290Z,80.28
2018-08-23T04:02:03.424Z,79.79
2018-08-23T04:04:32.440Z,79.12
2018-08-23T04:07:00.555Z,79.24
2018-08-23T04:09:29.195Z,79.72
2018-08-23T04:11:57.535Z,79.41
2018-08-23T04:14:25.627Z,79.64
2018-08-23T04:16:54.041Z,79.62
2018-08-23T04:19:22.510Z,80.09
2018-08-23T04:21:51.222Z,79.58
2018-08-23T04:24:20.347Z,80.30
2018-08-23T04:26:48.513Z,79.82
2018-08-23T04:29:32.686Z,80.21
2018-08-23T04:32:02.559Z,81.92
2018-08-23T04:34:32.988Z,81.65
2018-08-23T04:37:01.105Z,81.04
2018-08-23T04:39:29.207Z,81.02
2018-08-23T04:42:02.395Z,81.23
2018-08-23T04:44:42.360Z,81.11
2018-08-23T04:47:11.708Z,80.58
2018-08-23T04:49:40.087Z,79.83
2018-08-23T04:52:08.682Z,78.58
2018-08-23T04:54:36.791Z,78.41
2018-08-23T04:57:04.904Z,78.50
2018-08-23T04:59:32.971Z,78.36
2018-08-23T05:02:01.075Z,77.88
2018-08-23T05:04:29.184Z,78.26
2018-08-23T05:06:57.292Z,77.87
2018-08-23T05:09:25.502Z,77.75
2018-08-23T05:11:53.584Z,78.22
2018-08-23T05:14:22.631Z,79.85
2018-08-23T05:16:50.783Z,79.62
2018-08-23T05:19:18.879Z,78.87
2018-08-23T05:21:46.985Z,78.04
2018-08-23T05:24:15.193Z,77.94
2018-08-23T05:26:43.399Z,76.93
2018-08-23T05:29:11.540Z,77.08
2018-08-23T05:31:39.696Z,75.91
2018-08-23T05:34:08.843Z,76.03
2018-08-23T05:36:36.998Z,74.73
2018-08-23T05:39:08.121Z,74.84
2018-08-23T05:41:36.342Z,74.71
2018-08-23T05:44:13.491Z,74.53
2018-08-23T05:46:48.452Z,73.73
2018-08-23T05:49:16.603Z,73.93
2018-08-23T05:51:45.352Z,73.72
2018-08-23T05:54:13.495Z,73.50
2018-08-23T05:56:42.182Z,73.17
2018-08-23T05:59:15.269Z,72.56
2018-08-23T06:01:44.160Z,70.22
2018-08-23T06:04:12.345Z,70.53
2018-08-23T06:06:40.821Z,70.08
2018-08-23T06:09:13.091Z,67.99
2018-08-23T06:11:41.456Z,66.36
2018-08-23T06:14:09.657Z,63.95
2018-08-23T06:16:46.012Z,61.72
2018-08-23T06:19:14.692Z,60.07
2018-08-23T06:21:42.857Z,58.66
2018-08-23T06:24:11.269Z,59.04
2018-08-23T06:26:46.318Z,59.96
2018-08-23T06:29:20.517Z,59.29
2018-08-23T06:31:59.927Z,59.29
2018-08-23T06:34:32.835Z,58.72
2018-08-23T06:37:00.943Z,60.31
2018-08-23T06:39:29.080Z,61.81
2018-08-23T06:41:58.582Z,62.83
2018-08-23T06:44:34.142Z,61.96
2018-08-23T06:47:02.360Z,62.04
2018-08-23T06:49:30.484Z,61.40
2018-08-23T06:52:10.132Z,59.23
2018-08-23T06:54:38.269Z,59.22
2018-08-23T06:57:06.376Z,58.99
2018-08-23T06:59:34.584Z,57.88
2018-08-23T07:02:02.731Z,55.73
2018-08-23T07:04:30.845Z,56.36
2018-08-23T07:06:58.967Z,54.92
2018-08-23T07:09:27.083Z,54.55
2018-08-23T07:12:04.603Z,54.25
2018-08-23T07:14:34.050Z,54.91
2018-08-23T07:17:16.735Z,54.51
2018-08-23T07:19:45.045Z,54.80
2018-08-23T07:22:16.119Z,55.31
2018-08-23T07:24:45.443Z,54.41
2018-08-23T07:27:14.679Z,54.37
2018-08-23T07:29:46.027Z,54.79
2018-08-23T07:32:21.955Z,54.75
2018-08-23T07:34:59.191Z,53.73
2018-08-23T07:37:27.330Z,52.53
2018-08-23T07:40:00.947Z,53.39
2018-08-23T07:42:31.062Z,51.89
2018-08-23T07:44:59.964Z,51.98
2018-08-23T07:47:28.346Z,54.23
2018-08-23T07:49:58.369Z,53.30
2018-08-23T07:52:28.458Z,52.71
2018-08-23T07:54:57.389Z,54.07
2018-08-23T07:57:25.792Z,52.68
2018-08-23T07:59:57.768Z,52.71
2018-08-23T08:02:26.415Z,52.62
2018-08-23T08:04:54.611Z,52.97
2018-08-23T08:07:28.470Z,52.32
2018-08-23T08:09:57.684Z,53.51
2018-08-23T08:12:37.500Z,52.80
2018-08-23T08:15:12.128Z,52.59
2018-08-23T08:17:40.228Z,53.17
2018-08-23T08:20:09.833Z,51.66
2018-08-23T08:22:38.024Z,52.10
2018-08-23T08:25:17.683Z,52.28
2018-08-23T08:27:46.148Z,51.74
2018-08-23T08:30:16.824Z,53.23
2018-08-23T08:32:45.459Z,52.08
2018-08-23T08:35:15.207Z,50.95
2018-08-23T08:37:43.993Z,52.54
2018-08-23T08:40:18.394Z,52.10
2018-08-23T08:42:46.496Z,51.60
2018-08-23T08:45:14.734Z,51.93
2018-08-23T08:47:44.340Z,52.78
2018-08-23T08:50:12.443Z,52.16
2018-08-23T08:52:40.590Z,51.73
2018-08-23T08:55:10.323Z,51.73
2018-08-23T08:57:41.641Z,50.96
2018-08-23T09:00:10.293Z,50.26
2018-08-23T09:02:38.448Z,48.86
2018-08-23T09:05:06.681Z,47.55
2018-08-23T09:07:35.783Z,47.31
2018-08-23T09:10:04.472Z,46.23
2018-08-23T09:12:33.051Z,44.69
2018-08-23T09:15:01.147Z,44.86
2018-08-23T09:17:45.492Z,45.38
2018-08-23T09:20:16.800Z,46.05
2018-08-23T09:22:53.915Z,46.89
2018-08-23T09:25:29.458Z,47.45
2018-08-23T09:27:57.552Z,46.58
2018-08-23T09:30:25.901Z,45.20
2018-08-23T09:32:54.116Z,45.89
2018-08-23T09:35:26.407Z,44.24
2018-08-23T09:37:56.611Z,44.40
2018-08-23T09:40:25.247Z,44.40
2018-08-23T09:42:53.463Z,43.63
2018-08-23T09:45:22.107Z,43.96
2018-08-23T09:47:50.234Z,43.58
2018-08-23T09:50:18.445Z,42.27
2018-08-23T09:52:48.709Z,42.30
2018-08-23T09:55:19.089Z,41.87
2018-08-23T09:57:47.717Z,40.23
2018-08-23T10:00:21.640Z,40.13
2018-08-23T10:02:55.366Z,39.57
2018-08-23T10:05:28.980Z,37.83
2018-08-23T10:08:02.759Z,38.36
2018-08-23T10:10:36.291Z,37.92
2018-08-23T10:13:10.000Z,37.09
2018-08-23T10:15:43.949Z,36.42
2018-08-23T10:18:17.621Z,36.62
2018-08-23T10:20:51.182Z,35.80
2018-08-23T10:23:22.180Z,34.86
2018-08-23T10:25:51.367Z,34.88
2018-08-23T10:28:20.709Z,35.55
2018-08-23T10:30:49.068Z,33.88
2018-08-23T10:33:17.560Z,34.12
2018-08-23T10:35:46.742Z,34.20
2018-08-23T22:13:10.867Z,71.12
2018-08-23T22:15:44.347Z,72.67
2018-08-23T22:18:12.440Z,71.32
2018-08-23T22:20:40.542Z,71.29
2018-08-23T22:23:08.660Z,72.16
2018-08-23T22:25:37.316Z,72.65
2018-08-23T22:28:05.718Z,72.64
2018-08-23T22:30:33.845Z,73.46
2018-08-23T22:33:01.979Z,74.21
2018-08-23T22:35:30.253Z,74.06
2018-08-23T22:37:58.387Z,74.23
2018-08-23T22:40:26.852Z,74.05
2018-08-23T22:42:54.976Z,74.81
2018-08-23T22:45:23.118Z,75.37
2018-08-23T22:47:51.227Z,75.31
2018-08-23T22:50:19.328Z,76.48
2018-08-23T22:52:47.436Z,76.26
2018-08-23T22:55:15.553Z,76.90
2018-08-23T22:57:43.664Z,77.48
2018-08-23T23:00:11.757Z,78.35
2018-08-23T23:02:40.788Z,79.84
2018-08-23T23:05:09.437Z,81.54
2018-08-23T23:07:37.564Z,82.27
2018-08-23T23:10:06.141Z,82.11
2018-08-23T23:12:34.248Z,82.57
2018-08-23T23:15:06.187Z,83.49
2018-08-23T23:17:34.858Z,83.63
2018-08-23T23:20:02.959Z,83.95
2018-08-23T23:22:31.072Z,83.98
2018-08-23T23:25:01.403Z,85.27
2018-08-23T23:27:29.723Z,85.92
2018-08-23T23:29:58.280Z,85.20
2018-08-23T23:32:26.412Z,85.49
2018-08-23T23:34:54.891Z,85.95
2018-08-23T23:37:23.327Z,85.35
2018-08-23T23:39:51.472Z,85.13
2018-08-23T23:42:19.567Z,85.99
2018-08-23T23:44:47.676Z,85.27
2018-08-23T23:47:15.779Z,85.75
2018-08-23T23:49:43.935Z,85.59
2018-08-23T23:52:12.438Z,86.19
2018-08-23T23:54:40.536Z,85.65
2018-08-23T23:57:08.937Z,85.82
2018-08-23T23:59:37.042Z,85.91
